createdAt,value
2019-05-22T00:01:48.658Z,3.80
2019-05-22T00:04:30.183Z,3.30
2019-05-22T00:07:03.485Z,3.43
2019-05-22T00:09:38.620Z,3.43
2019-05-22T00:12:11.859Z,3.60
2019-05-22T00:14:41.863Z,3.40
2019-05-22T00:17:15.430Z,3.80
2019-05-22T00:19:47.125Z,3.70
2019-05-22T00:22:30.910Z,3.87
2019-05-22T00:25:01.480Z,3.57
2019-05-22T00:27:32.369Z,3.90
2019-05-22T00:30:03.011Z,3.50
2019-05-22T00:32:34.280Z,3.60
2019-05-22T00:35:05.420Z,4.10
2019-05-22T00:37:35.612Z,3.97
2019-05-22T00:40:08.201Z,4.30
2019-05-22T00:42:39.866Z,4.47
2019-05-22T00:45:13.069Z,4.53
2019-05-22T00:47:43.650Z,4.27
2019-05-22T00:50:16.641Z,4.57
2019-05-22T00:52:50.127Z,4.13
2019-05-22T00:55:39.842Z,3.97
2019-05-22T00:58:26.885Z,3.97
2019-05-22T01:01:03.690Z,4.10
2019-05-22T01:03:36.241Z,5.20
2019-05-22T01:06:08.108Z,3.57
2019-05-22T01:08:40.238Z,4.00
2019-05-22T01:11:11.704Z,3.77
2019-05-22T01:13:42.868Z,3.93
2019-05-22T01:16:15.058Z,3.47
2019-05-22T01:18:45.256Z,3.80
2019-05-22T01:21:21.559Z,4.10
2019-05-22T01:23:52.897Z,4.13
2019-05-22T01:26:22.926Z,3.97
2019-05-22T01:28:53.279Z,4.27
2019-05-22T01:31:27.962Z,3.90
2019-05-22T01:34:05.594Z,3.63
2019-05-22T01:36:47.332Z,3.77
2019-05-22T01:39:30.810Z,4.00
2019-05-22T01:42:01.819Z,3.70
2019-05-22T01:44:31.593Z,4.00
2019-05-22T01:47:06.815Z,3.80
2019-05-22T01:49:41.155Z,4.40
2019-05-22T01:52:12.878Z,4.07
2019-05-22T01:54:43.108Z,3.90
2019-05-22T01:57:12.465Z,3.87
2019-05-22T01:59:43.115Z,3.90
2019-05-22T02:02:14.438Z,4.07
2019-05-22T02:04:45.391Z,3.80
2019-05-22T02:07:15.271Z,3.97
2019-05-22T02:09:46.457Z,3.83
2019-05-22T02:12:41.272Z,3.67
2019-05-22T02:15:13.003Z,3.67
2019-05-22T02:17:42.429Z,3.63
2019-05-22T02:20:14.158Z,3.60
2019-05-22T02:22:44.728Z,3.67
2019-05-22T02:25:16.384Z,4.10
2019-05-22T02:27:46.301Z,3.57
2019-05-22T02:30:18.602Z,3.70
2019-05-22T02:32:49.083Z,3.73
2019-05-22T02:35:19.251Z,3.80
2019-05-22T02:37:49.329Z,3.80
2019-05-22T02:40:24.353Z,3.70
2019-05-22T02:42:55.088Z,3.77
2019-05-22T02:45:25.488Z,3.70
2019-05-22T02:47:58.104Z,4.10
2019-05-22T02:50:27.806Z,4.10
2019-05-22T02:52:57.519Z,4.00
2019-05-22T02:55:28.565Z,4.27
2019-05-22T02:57:58.760Z,3.60
2019-05-22T03:00:31.082Z,3.77
2019-05-22T03:03:01.468Z,4.17
2019-05-22T03:05:31.023Z,3.83
2019-05-22T03:08:00.352Z,4.10
2019-05-22T03:10:31.061Z,3.93
2019-05-22T03:13:01.641Z,4.10
2019-05-22T03:15:31.412Z,3.53
2019-05-22T03:18:04.936Z,4.00
2019-05-22T03:20:35.919Z,3.90
2019-05-22T03:23:35.196Z,4.20
2019-05-22T03:26:08.284Z,3.57
2019-05-22T03:28:38.806Z,4.13
2019-05-22T03:31:09.166Z,3.93
2019-05-22T03:33:39.984Z,4.00
2019-05-22T03:36:13.771Z,4.20
2019-05-22T03:38:44.053Z,3.43
2019-05-22T03:41:14.120Z,4.10
2019-05-22T03:43:46.326Z,3.70
2019-05-22T03:46:26.582Z,3.80
2019-05-22T03:48:56.054Z,3.70
2019-05-22T03:51:25.598Z,3.47
2019-05-22T03:53:55.003Z,2.90
2019-05-22T03:56:25.164Z,3.47
2019-05-22T03:58:55.209Z,3.30
2019-05-22T04:01:26.212Z,3.17
2019-05-22T04:03:55.579Z,2.87
2019-05-22T04:06:25.553Z,3.40
2019-05-22T04:08:56.727Z,3.03
2019-05-22T04:11:31.023Z,3.33
2019-05-22T04:14:01.104Z,3.07
2019-05-22T04:16:30.971Z,3.40
2019-05-22T04:19:01.169Z,3.37
2019-05-22T04:21:31.004Z,2.90
2019-05-22T04:24:01.674Z,3.47
2019-05-22T04:26:32.878Z,2.90
2019-05-22T04:29:03.563Z,3.13
2019-05-22T04:31:45.969Z,2.90
2019-05-22T04:34:15.500Z,3.10
2019-05-22T04:36:45.392Z,3.20
2019-05-22T04:39:24.257Z,3.00
2019-05-22T04:41:55.497Z,2.70
2019-05-22T04:44:26.381Z,3.20
2019-05-22T04:46:56.437Z,2.77
2019-05-22T04:49:26.680Z,2.70
2019-05-22T04:51:56.394Z,3.47
2019-05-22T04:54:26.183Z,2.90
2019-05-22T04:56:55.954Z,2.90
2019-05-22T04:59:25.683Z,3.00
2019-05-22T05:01:55.082Z,3.03
2019-05-22T05:04:25.808Z,2.80
2019-05-22T05:06:55.494Z,2.87
2019-05-22T05:09:25.482Z,2.80
2019-05-22T05:11:55.227Z,3.03
2019-05-22T05:14:24.762Z,2.77
2019-05-22T05:16:54.363Z,2.83
2019-05-22T05:19:24.074Z,2.60
2019-05-22T05:21:53.676Z,3.13
2019-05-22T05:24:23.724Z,2.63
2019-05-22T05:26:53.864Z,2.80
2019-05-22T05:29:29.033Z,2.83
2019-05-22T05:31:59.873Z,2.67
2019-05-22T05:34:36.823Z,3.00
2019-05-22T05:37:08.039Z,2.60
2019-05-22T05:40:39.313Z,2.90
2019-05-22T05:43:11.165Z,2.83
2019-05-22T05:45:43.145Z,4.17
2019-05-22T05:48:18.479Z,2.97
2019-05-22T05:51:24.119Z,3.13
2019-05-22T05:54:05.577Z,3.00
2019-05-22T05:56:37.602Z,2.90
2019-05-22T05:59:08.282Z,3.10
2019-05-22T06:01:41.696Z,2.90
2019-05-22T06:04:13.261Z,2.70
2019-05-22T06:07:22.224Z,2.80
2019-05-22T06:10:22.096Z,2.60
2019-05-22T06:12:52.185Z,2.90
2019-05-22T06:15:26.329Z,2.70
2019-05-22T06:18:36.315Z,3.00
2019-05-22T06:21:09.816Z,2.60
2019-05-22T06:24:19.208Z,2.73
2019-05-22T06:27:23.328Z,2.60
2019-05-22T06:29:57.226Z,14.33
2019-05-22T06:32:54.920Z,2.50
2019-05-22T06:35:26.844Z,2.57
2019-05-22T06:38:05.412Z,2.30
2019-05-22T06:40:36.066Z,2.27
2019-05-22T06:43:58.440Z,2.23
2019-05-22T06:46:47.816Z,2.47
2019-05-22T06:49:39.947Z,2.30
2019-05-22T06:52:11.120Z,2.47
2019-05-22T06:54:40.708Z,3.37
2019-05-22T06:57:20.649Z,2.50
2019-05-22T07:00:11.425Z,2.10
2019-05-22T07:02:23.017Z,2.02
2019-05-22T07:04:53.201Z,2.30
2019-05-22T07:07:24.450Z,2.58
2019-05-22T07:09:54.908Z,2.30
2019-05-22T07:12:26.953Z,2.27
2019-05-22T07:15:59.441Z,2.53
2019-05-22T07:18:30.712Z,2.10
2019-05-22T07:21:00.427Z,2.10
2019-05-22T07:23:33.028Z,2.00
2019-05-22T07:26:04.059Z,2.00
2019-05-22T07:28:33.618Z,2.40
2019-05-22T07:31:03.564Z,1.90
2019-05-22T07:33:34.028Z,2.17
2019-05-22T07:36:15.896Z,2.07
2019-05-22T07:38:35.736Z,1.90
2019-05-22T07:41:06.084Z,1.92
2019-05-22T07:43:35.628Z,2.63
2019-05-22T07:46:05.256Z,2.10
2019-05-22T07:48:35.888Z,3.33
2019-05-22T07:51:05.486Z,1.98
2019-05-22T07:53:34.941Z,1.95
2019-05-22T07:56:09.648Z,2.75
2019-05-22T07:58:39.364Z,1.65
2019-05-22T08:01:09.498Z,1.60
2019-05-22T08:03:40.626Z,2.02
2019-05-22T08:06:11.519Z,2.25
2019-05-22T08:08:43.634Z,2.00
2019-05-22T08:11:13.554Z,1.80
2019-05-22T08:13:44.233Z,1.90
2019-05-22T08:16:13.874Z,2.27
2019-05-22T08:18:43.731Z,1.98
2019-05-22T08:21:13.143Z,1.80
2019-05-22T08:23:43.104Z,2.20
2019-05-22T08:26:14.834Z,2.08
2019-05-22T08:28:44.376Z,2.87
2019-05-22T08:31:15.763Z,2.10
2019-05-22T08:33:45.278Z,2.37
2019-05-22T08:36:15.013Z,2.40
2019-05-22T08:38:45.364Z,2.47
2019-05-22T08:41:18.008Z,2.83
2019-05-22T08:44:13.546Z,2.62
2019-05-22T08:46:19.041Z,2.40
2019-05-22T08:48:49.750Z,2.52
2019-05-22T08:51:19.610Z,2.22
2019-05-22T08:53:49.729Z,3.00
2019-05-22T08:56:20.137Z,2.60
2019-05-22T08:58:51.271Z,2.80
2019-05-22T09:01:21.965Z,3.20
2019-05-22T09:03:51.707Z,3.10
2019-05-22T09:06:21.912Z,3.20
2019-05-22T09:08:51.440Z,3.33
2019-05-22T09:11:20.861Z,3.05
2019-05-22T09:13:50.254Z,2.60
2019-05-22T09:16:20.215Z,2.95
2019-05-22T09:18:52.433Z,2.95
2019-05-22T09:21:22.575Z,2.57
2019-05-22T09:23:52.151Z,2.97
2019-05-22T09:26:22.637Z,3.03
2019-05-22T09:28:52.360Z,3.47
2019-05-22T09:31:21.721Z,3.27
2019-05-22T09:33:51.537Z,3.10
2019-05-22T09:36:21.327Z,3.08
2019-05-22T09:38:52.527Z,3.20
2019-05-22T09:41:22.592Z,2.83
2019-05-22T09:43:52.010Z,2.92
2019-05-22T09:46:21.451Z,2.72
2019-05-22T09:48:51.185Z,2.67
2019-05-22T09:51:20.769Z,3.12
2019-05-22T09:53:50.236Z,3.20
2019-05-22T09:56:20.768Z,3.00
2019-05-22T09:58:50.474Z,3.00
2019-05-22T10:01:20.527Z,3.47
2019-05-22T10:03:50.024Z,2.95
2019-05-22T10:06:21.637Z,2.55
2019-05-22T10:08:50.670Z,2.52
2019-05-22T10:11:20.694Z,2.65
2019-05-22T10:13:50.199Z,2.62
2019-05-22T10:16:19.673Z,2.42
2019-05-22T10:18:52.781Z,2.33
2019-05-22T10:21:21.365Z,2.70
2019-05-22T10:23:51.174Z,2.33
2019-05-22T10:26:20.906Z,2.50
2019-05-22T10:28:50.476Z,2.62
2019-05-22T10:31:21.839Z,2.60
2019-05-22T10:33:52.190Z,2.90
2019-05-22T10:36:22.779Z,2.90
2019-05-22T10:38:52.229Z,2.83
2019-05-22T10:41:22.131Z,3.30
2019-05-22T10:43:51.959Z,2.90
2019-05-22T10:46:22.039Z,2.95
2019-05-22T10:48:52.382Z,2.58
2019-05-22T10:51:21.856Z,3.00
2019-05-22T10:53:51.142Z,3.00
2019-05-22T10:56:21.337Z,3.20
2019-05-22T10:58:50.689Z,2.70
2019-05-22T11:01:20.769Z,3.15
2019-05-22T11:03:50.975Z,2.60
2019-05-22T11:06:21.703Z,2.20
2019-05-22T11:08:51.177Z,2.47
2019-05-22T11:11:21.833Z,2.35
2019-05-22T11:14:00.831Z,2.33
2019-05-22T11:16:23.065Z,2.52
2019-05-22T11:18:52.610Z,2.90
2019-05-22T11:21:22.273Z,2.47
2019-05-22T11:23:53.213Z,2.52
2019-05-22T11:26:22.865Z,2.85
2019-05-22T11:28:53.460Z,2.60
2019-05-22T11:31:23.367Z,2.70
2019-05-22T11:33:53.686Z,2.10
2019-05-22T11:36:24.209Z,2.47
2019-05-22T11:38:53.565Z,2.60
2019-05-22T11:41:23.127Z,2.45
2019-05-22T11:43:52.504Z,2.30
2019-05-22T11:46:22.150Z,2.45
2019-05-22T11:48:51.832Z,2.87
2019-05-22T11:51:22.138Z,2.80
2019-05-22T11:54:07.813Z,2.43
2019-05-22T11:56:23.178Z,2.47
2019-05-22T11:58:52.646Z,2.30
2019-05-22T12:01:22.075Z,2.10
2019-05-22T12:03:51.816Z,2.50
2019-05-22T12:06:21.708Z,1.80
2019-05-22T12:08:51.209Z,2.10
2019-05-22T12:11:21.576Z,2.02
2019-05-22T12:13:51.734Z,2.55
2019-05-22T12:16:21.625Z,1.80
2019-05-22T12:18:51.107Z,2.40
2019-05-22T12:21:21.038Z,2.10
2019-05-22T12:23:50.574Z,2.20
2019-05-22T12:26:20.140Z,2.17
2019-05-22T12:28:49.593Z,2.83
2019-05-22T12:31:20.277Z,2.65
2019-05-22T12:33:50.166Z,1.98
2019-05-22T12:36:19.729Z,1.82
2019-05-22T12:38:49.338Z,1.82
2019-05-22T12:41:19.738Z,1.90
2019-05-22T12:43:49.296Z,1.62
2019-05-22T12:46:19.673Z,1.50
2019-05-22T12:48:49.743Z,1.92
2019-05-22T12:51:20.627Z,1.57
2019-05-22T12:53:50.563Z,1.75
2019-05-22T12:56:19.972Z,1.40
2019-05-22T12:58:50.089Z,1.67
2019-05-22T13:01:20.853Z,1.87
2019-05-22T13:03:50.352Z,1.40
2019-05-22T13:06:20.488Z,1.37
2019-05-22T13:08:50.505Z,1.60
2019-05-22T13:11:20.333Z,1.40
2019-05-22T13:13:49.983Z,1.42
2019-05-22T13:16:19.470Z,1.40
2019-05-22T13:18:50.337Z,1.30
2019-05-22T13:21:22.467Z,1.12
2019-05-22T13:23:53.287Z,1.32
2019-05-22T13:26:24.273Z,1.12
2019-05-22T13:28:55.086Z,1.07
2019-05-22T13:31:25.336Z,1.20
2019-05-22T13:33:55.482Z,1.10
2019-05-22T13:36:25.092Z,0.85
2019-05-22T13:38:55.176Z,1.00
2019-05-22T13:41:24.586Z,0.93
2019-05-22T13:43:55.076Z,1.00
2019-05-22T13:46:24.500Z,1.07
2019-05-22T13:48:53.845Z,1.10
2019-05-22T13:51:23.877Z,0.90
2019-05-22T13:53:53.779Z,0.85
2019-05-22T13:56:25.523Z,1.10
2019-05-22T13:58:56.277Z,1.10
2019-05-22T14:01:26.175Z,1.10
2019-05-22T14:03:55.901Z,1.25
2019-05-22T14:06:26.252Z,1.10
2019-05-22T14:08:55.628Z,0.98
2019-05-22T14:11:26.029Z,1.15
2019-05-22T14:13:56.412Z,1.10
2019-05-22T14:16:26.202Z,1.17
2019-05-22T14:18:55.655Z,1.72
2019-05-22T14:21:25.290Z,1.90
2019-05-22T14:23:54.765Z,2.02
2019-05-22T14:26:24.497Z,2.17
2019-05-22T14:28:53.972Z,2.08
2019-05-22T14:31:23.589Z,2.50
2019-05-22T14:33:54.756Z,2.30
2019-05-22T14:36:24.366Z,2.30
2019-05-22T14:38:53.990Z,2.22
2019-05-22T14:41:23.588Z,2.25
2019-05-22T14:43:53.535Z,2.22
2019-05-22T14:46:23.071Z,1.70
2019-05-22T14:48:53.008Z,1.50
2019-05-22T14:51:23.415Z,1.72
2019-05-22T14:53:56.377Z,1.65
2019-05-22T14:56:46.617Z,1.42
2019-05-22T14:59:16.287Z,1.50
2019-05-22T15:01:46.007Z,1.40
2019-05-22T15:04:15.806Z,1.20
2019-05-22T15:06:45.707Z,1.70
2019-05-22T15:09:15.183Z,1.55
2019-05-22T15:11:45.135Z,1.40
2019-05-22T15:14:15.382Z,1.20
2019-05-22T15:16:44.997Z,1.10
2019-05-22T15:19:15.494Z,1.50
2019-05-22T15:21:44.989Z,1.75
2019-05-22T15:24:15.299Z,1.40
2019-05-22T15:26:44.753Z,1.10
2019-05-22T15:29:14.477Z,1.12
2019-05-22T15:31:47.273Z,1.10
2019-05-22T15:34:16.939Z,1.22
2019-05-22T15:36:47.322Z,1.20
2019-05-22T15:39:20.742Z,1.30
2019-05-22T15:41:51.020Z,1.27
2019-05-22T15:44:20.629Z,1.20
2019-05-22T15:46:50.859Z,1.20
2019-05-22T15:49:21.635Z,0.90
2019-05-22T15:51:52.178Z,1.15
2019-05-22T15:54:21.671Z,1.10
2019-05-22T15:56:51.378Z,1.00
2019-05-22T15:59:22.585Z,1.20
2019-05-22T16:01:53.588Z,1.40
2019-05-22T16:04:23.757Z,1.27
2019-05-22T16:06:55.002Z,1.47
2019-05-22T16:09:26.076Z,1.20
2019-05-22T16:11:56.157Z,1.30
2019-05-22T16:14:28.500Z,1.20
2019-05-22T16:16:58.688Z,1.40
2019-05-22T16:19:29.399Z,1.50
2019-05-22T16:22:02.594Z,1.50
2019-05-22T16:24:32.446Z,1.50
2019-05-22T16:27:02.115Z,1.70
2019-05-22T16:29:31.884Z,1.52
2019-05-22T16:32:04.182Z,2.20
2019-05-22T16:34:33.720Z,1.30
2019-05-22T16:37:04.138Z,1.70
2019-05-22T16:39:34.181Z,1.42
2019-05-22T16:42:03.840Z,1.70
2019-05-22T16:44:33.548Z,1.98
2019-05-22T16:47:04.560Z,1.60
2019-05-22T16:49:34.908Z,1.90
2019-05-22T16:52:06.902Z,1.98
2019-05-22T16:54:37.692Z,2.77
2019-05-22T16:57:08.662Z,2.80
2019-05-22T16:59:40.427Z,2.08
2019-05-22T17:02:12.040Z,1.80
2019-05-22T17:04:41.773Z,1.60
2019-05-22T17:07:12.331Z,1.40
2019-05-22T17:09:43.445Z,1.50
2019-05-22T17:12:14.066Z,1.20
2019-05-22T17:14:45.732Z,1.50
2019-05-22T17:17:18.247Z,2.00
2019-05-22T17:19:47.696Z,1.90
2019-05-22T17:22:17.765Z,2.27
2019-05-22T17:24:47.421Z,1.98
2019-05-22T17:27:18.725Z,1.50
2019-05-22T17:29:50.909Z,4.15
2019-05-22T17:32:20.926Z,1.87
2019-05-22T17:34:50.696Z,1.70
2019-05-22T17:37:21.351Z,1.40
2019-05-22T17:39:51.815Z,1.10
2019-05-22T17:42:23.532Z,0.82
2019-05-22T17:44:54.144Z,1.10
2019-05-22T17:47:27.919Z,1.10
2019-05-22T17:49:59.489Z,1.00
2019-05-22T17:52:29.142Z,1.00
2019-05-22T17:54:59.632Z,1.00
2019-05-22T17:57:30.479Z,1.02
2019-05-22T17:59:59.937Z,2.12
2019-05-22T18:02:33.761Z,1.30
2019-05-22T18:05:06.604Z,1.17
2019-05-22T18:07:35.538Z,1.10
2019-05-22T18:10:05.689Z,1.32
2019-05-22T18:12:35.451Z,1.50
2019-05-22T18:15:07.047Z,1.50
2019-05-22T18:17:38.637Z,1.60
2019-05-22T18:20:09.848Z,1.50
2019-05-22T18:22:40.020Z,1.40
2019-05-22T18:25:10.445Z,1.70
2019-05-22T18:27:39.813Z,1.75
2019-05-22T18:30:10.929Z,1.57
2019-05-22T18:32:42.345Z,1.80
2019-05-22T18:35:13.328Z,1.87
2019-05-22T18:37:43.100Z,2.15
2019-05-22T18:40:13.840Z,2.20
2019-05-22T18:42:43.670Z,1.95
2019-05-22T18:45:14.284Z,2.10
2019-05-22T18:47:44.292Z,2.35
2019-05-22T18:50:14.749Z,2.08
2019-05-22T18:52:47.569Z,4.00
2019-05-22T18:55:18.047Z,3.35
2019-05-22T18:57:47.858Z,3.00
2019-05-22T19:00:19.701Z,2.30
2019-05-22T19:02:49.200Z,2.15
2019-05-22T19:05:22.320Z,3.40
2019-05-22T19:07:52.278Z,2.83
2019-05-22T19:10:22.761Z,3.50
2019-05-22T19:12:52.186Z,3.20
2019-05-22T19:15:22.695Z,2.60
2019-05-22T19:17:52.680Z,2.50
2019-05-22T19:20:22.134Z,2.53
2019-05-22T19:23:00.008Z,2.80
2019-05-22T19:25:23.479Z,2.80
2019-05-22T19:27:52.966Z,2.65
2019-05-22T19:30:22.425Z,2.97
2019-05-22T19:32:52.600Z,3.70
2019-05-22T19:35:22.128Z,5.03
2019-05-22T19:37:52.500Z,2.65
2019-05-22T19:40:22.781Z,3.27
2019-05-22T19:42:52.618Z,2.87
2019-05-22T19:45:22.240Z,3.07
2019-05-22T19:47:54.406Z,2.40
2019-05-22T19:50:25.331Z,2.87
2019-05-22T19:52:56.896Z,3.97
2019-05-22T19:55:28.764Z,5.03
2019-05-22T19:57:59.984Z,6.20
2019-05-22T20:00:30.540Z,15.93
2019-05-22T20:03:01.084Z,9.00
2019-05-22T20:05:31.657Z,6.53
2019-05-22T20:08:02.087Z,7.37
2019-05-22T20:10:32.124Z,7.80
2019-05-22T20:13:01.557Z,7.40
2019-05-22T20:15:31.649Z,7.10
2019-05-22T20:18:01.990Z,6.87
2019-05-22T20:20:31.781Z,7.20
2019-05-22T20:23:01.516Z,8.17
2019-05-22T20:25:31.709Z,8.07
2019-05-22T20:28:02.676Z,6.77
2019-05-22T20:30:32.836Z,6.07
2019-05-22T20:33:02.454Z,7.07
2019-05-22T20:35:32.304Z,6.63
2019-05-22T20:38:02.903Z,6.00
2019-05-22T20:40:33.416Z,6.03
2019-05-22T20:43:03.896Z,6.60
2019-05-22T20:45:33.576Z,6.53
2019-05-22T20:48:11.932Z,6.17
2019-05-22T20:50:43.206Z,6.03
2019-05-22T20:53:14.238Z,6.20
2019-05-22T20:55:43.695Z,6.20
2019-05-22T20:58:19.425Z,6.07
2019-05-22T21:00:49.918Z,6.43
2019-05-22T21:03:21.212Z,6.70
2019-05-22T21:05:52.929Z,7.87
2019-05-22T21:08:25.606Z,9.30
2019-05-22T21:10:56.301Z,10.10
2019-05-22T21:13:26.177Z,10.43
2019-05-22T21:15:57.091Z,10.00
2019-05-22T21:18:46.921Z,10.27
2019-05-22T21:21:18.292Z,9.33
2019-05-22T21:23:47.708Z,9.97
2019-05-22T21:26:20.683Z,10.63
2019-05-22T21:28:50.988Z,10.17
2019-05-22T21:31:22.044Z,8.83
2019-05-22T21:33:52.789Z,7.93
2019-05-22T21:36:23.131Z,7.33
2019-05-22T21:38:53.325Z,7.30
2019-05-22T21:41:23.189Z,8.40
2019-05-22T21:43:54.315Z,7.90
2019-05-22T21:46:26.140Z,8.10
2019-05-22T21:48:57.111Z,8.27
2019-05-22T21:51:26.882Z,7.97
2019-05-22T21:53:57.679Z,7.27
2019-05-22T21:56:30.172Z,8.80
2019-05-22T21:59:01.084Z,7.43
2019-05-22T22:01:44.269Z,7.30
2019-05-22T22:04:33.136Z,7.60
2019-05-22T22:07:02.736Z,7.40
2019-05-22T22:09:32.646Z,6.53
2019-05-22T22:12:02.254Z,7.40
2019-05-22T22:14:32.300Z,6.90
2019-05-22T22:17:03.577Z,6.63
2019-05-22T22:19:34.741Z,6.37
2019-05-22T22:22:05.319Z,6.73
2019-05-22T22:24:35.951Z,8.37
2019-05-22T22:27:06.831Z,8.93
2019-05-22T22:29:36.418Z,9.10
2019-05-22T22:32:10.544Z,8.57
2019-05-22T22:34:48.684Z,7.43
2019-05-22T22:37:19.204Z,7.13
2019-05-22T22:39:54.605Z,6.83
2019-05-22T22:42:28.565Z,7.07
2019-05-22T22:44:59.117Z,7.47
2019-05-22T22:47:41.823Z,8.60
2019-05-22T22:50:13.101Z,8.13
2019-05-22T22:52:45.183Z,8.60
2019-05-22T22:55:16.513Z,8.20
2019-05-22T22:57:48.335Z,8.20
2019-05-22T23:00:25.286Z,7.93
2019-05-22T23:02:55.752Z,8.30
2019-05-22T23:05:25.232Z,8.40
2019-05-22T23:07:55.700Z,9.17
2019-05-22T23:10:25.774Z,10.10
2019-05-22T23:12:55.861Z,9.13
2019-05-22T23:15:26.476Z,9.77
2019-05-22T23:17:56.713Z,9.83
2019-05-22T23:20:26.248Z,10.53
2019-05-22T23:22:54.253Z,10.40
2019-05-22T23:25:23.912Z,10.20
2019-05-22T23:27:53.374Z,9.87
2019-05-22T23:30:23.963Z,10.03
2019-05-22T23:32:54.336Z,10.03
2019-05-22T23:35:24.737Z,10.63
2019-05-22T23:37:54.957Z,9.40
2019-05-22T23:40:28.607Z,10.13
2019-05-22T23:42:59.315Z,10.07
2019-05-22T23:45:29.240Z,9.43
2019-05-22T23:48:07.032Z,10.13
2019-05-22T23:50:38.063Z,9.83
2019-05-22T23:53:08.663Z,9.93
2019-05-22T23:55:38.827Z,9.73
2019-05-22T23:58:09.913Z,10.13
